Abbott, Texas
Current Conditions -  °F | °C
As of 4:15 AM on Sunday 25 Jan 2015 (Local Time) from KINJ Reporting Station
Clear Clear  
Wind Chill: 37°   Ceiling: Unl
Heat Index: 37°   Visibility: 10mi
Dew Point: 32°   Wind: 3mph
Humidity: 81%   Direction: 180°S
Pressure: 29.97"   Gusts: NA
Location:  31.88°N, 97.07°W
Report Text: KINJ 251015Z AUTO 18003KT 10SM CLR 03/00 A2997 RMK AO2 T00290000
Loading
Personal Weather Stations






























Interactive Weather Map New forecast layout! Learn more

10-Day Weather Forecast

Advertisements
Track Severe Weather on mobile